Hlavní strana
METAR-TAF:

METAR-TAF

Letiště :

Stavropol, Rusko

zeměpisná šířka: 45-20N, zeměpisná délka: 042-00E, výška: 453 m

Aktuální stav počasí

Zpráva byla vytvořena před 14 minutami, v 15:00 UTC
Západoseverozápadní vítr 6 kt
Teplota 11°C
Vlhkost vzduchu 76%
Tlak 1013 hPa
Viditelnost 10 km a více
Polojasno ve výšce 3300 ft

METAR: URMT 241500Z 29003MPS 9999 SCT033 11/07 Q1013 R25/010070 NOSIG RMK QFE721

Čas: 19:14 (15:14 UTC)

Předpověď počasí

Zpráva byla vytvořena před 1 hodinou a 14 minutami, v 14:00 UTC
Předpověď platná od 24 v 15 UTC do 24 v 24 UTC
Jihozápadní vítr 6 kt s nárazy do 19 kt
Viditelnost 10 km a více
Oblačno až skoro zataženo ve výšce 3000 ft
Dočasný
od 24 v 15 UTC do 24 v 18 UTC
Západní vítr 8 kt s nárazy do 19 kt

TAF: URMT 241400Z 2415/2424 23003G10MPS 9999 BKN030 TEMPO 2415/2418 28004G10MPS

Stav a předpovědi počasí z více než 4 000 letišť (zprávy METAR a TAF).

Červené a žluté tečky na mapě představují dostupné meteorologické stanice.

Když kurzor umístíte na tečku, zobrazí se název stanice.

Pak kliknutím zobrazíte stav a předpověď počasí.

Chcete-li změnit mapu, kliknutím na zelené tlačítko se znaménkem +mapu přiblížíte, kliknutím na zelené tlačítko se znaménkem – mapu oddálíte a kliknutím na zelené šipky přejdete na sousední mapy.


METAR-TAF: